createdAt,value
2022-10-01T00:01:12.154Z,0
2022-10-01T00:02:29.259Z,0
2022-10-01T00:03:46.363Z,0
2022-10-01T00:05:03.467Z,0
2022-10-01T00:06:20.572Z,0
2022-10-01T00:07:37.676Z,0
2022-10-01T00:08:54.780Z,0
2022-10-01T00:10:11.885Z,0
2022-10-01T00:11:28.989Z,0
2022-10-01T00:12:46.093Z,0
2022-10-01T00:14:03.198Z,0
2022-10-01T00:15:20.302Z,0
2022-10-01T00:16:36.423Z,0
2022-10-01T00:17:53.527Z,0
2022-10-01T00:19:10.631Z,0
2022-10-01T00:20:27.736Z,0
2022-10-01T00:21:44.840Z,0
2022-10-01T00:23:01.945Z,0
2022-10-01T00:24:19.049Z,0
2022-10-01T00:25:36.153Z,0
2022-10-01T00:26:53.257Z,0
2022-10-01T00:28:10.362Z,0
2022-10-01T00:29:27.466Z,0
2022-10-01T00:30:44.570Z,0
2022-10-01T00:32:01.674Z,0
2022-10-01T00:33:17.795Z,0
2022-10-01T00:34:34.899Z,0
2022-10-01T00:35:52.004Z,0
2022-10-01T00:37:09.108Z,0
2022-10-01T00:38:26.212Z,0
2022-10-01T00:39:43.317Z,0
2022-10-01T00:41:00.421Z,0
2022-10-01T00:42:17.525Z,0
2022-10-01T00:43:34.629Z,0
2022-10-01T00:44:51.734Z,0
2022-10-01T00:46:08.838Z,0
2022-10-01T00:47:25.944Z,0
2022-10-01T00:48:43.048Z,0
2022-10-01T00:49:59.169Z,0
2022-10-01T00:51:16.273Z,0
2022-10-01T00:52:33.377Z,0
2022-10-01T00:53:50.481Z,0
2022-10-01T00:55:07.586Z,0
2022-10-01T00:56:24.690Z,0
2022-10-01T00:57:41.795Z,0
2022-10-01T00:58:58.899Z,0
2022-10-01T01:00:16.003Z,0
2022-10-01T01:01:33.107Z,0
2022-10-01T01:02:50.212Z,0
2022-10-01T01:04:07.316Z,0
2022-10-01T01:05:24.420Z,0
2022-10-01T01:06:41.525Z,0
2022-10-01T01:07:57.645Z,0
2022-10-01T01:09:14.749Z,0
2022-10-01T01:10:31.854Z,0
2022-10-01T01:11:48.959Z,0
2022-10-01T01:13:06.063Z,0
2022-10-01T01:14:23.168Z,0
2022-10-01T01:15:40.272Z,0
2022-10-01T01:16:57.376Z,0
2022-10-01T01:18:14.481Z,0
2022-10-01T01:19:31.585Z,0
2022-10-01T01:20:48.689Z,0
2022-10-01T01:22:05.794Z,0
2022-10-01T01:23:22.898Z,0
2022-10-01T01:24:39.018Z,0
2022-10-01T01:25:56.122Z,0
2022-10-01T01:27:13.227Z,0
2022-10-01T01:28:30.331Z,0
2022-10-01T01:29:47.436Z,0
2022-10-01T01:31:04.540Z,0
2022-10-01T01:32:21.644Z,0
2022-10-01T01:33:38.748Z,0
2022-10-01T01:34:55.853Z,0
2022-10-01T01:36:12.957Z,0
2022-10-01T01:37:30.061Z,0
2022-10-01T01:38:47.165Z,0
2022-10-01T01:40:04.270Z,0
2022-10-01T01:41:20.390Z,0
2022-10-01T01:42:37.494Z,0
2022-10-01T01:43:54.599Z,0
2022-10-01T01:45:11.703Z,0
2022-10-01T01:46:28.807Z,0
2022-10-01T01:47:45.912Z,0
2022-10-01T01:49:03.016Z,0
2022-10-01T01:50:20.120Z,0
2022-10-01T01:51:37.225Z,0
2022-10-01T01:52:54.329Z,0
2022-10-01T01:54:11.434Z,0
2022-10-01T01:55:28.538Z,0
2022-10-01T01:56:45.642Z,0
2022-10-01T01:58:01.763Z,0
2022-10-01T01:59:18.867Z,0
2022-10-01T02:00:35.971Z,0
2022-10-01T02:01:53.076Z,0
2022-10-01T02:03:10.180Z,0
2022-10-01T02:04:27.285Z,0
2022-10-01T02:05:44.389Z,0
2022-10-01T02:07:01.493Z,0
2022-10-01T02:08:18.598Z,0
2022-10-01T02:09:35.702Z,0
2022-10-01T02:10:52.806Z,0
2022-10-01T02:12:09.911Z,0
2022-10-01T02:13:27.015Z,0
2022-10-01T02:14:43.136Z,0
2022-10-01T02:16:00.240Z,0
2022-10-01T02:17:17.344Z,0
2022-10-01T02:18:34.447Z,0
2022-10-01T02:19:51.551Z,0
2022-10-01T02:21:08.655Z,0
2022-10-01T02:22:25.759Z,0
2022-10-01T02:23:42.863Z,0
2022-10-01T02:24:59.968Z,0
2022-10-01T02:26:17.072Z,0
2022-10-01T02:27:34.176Z,0
2022-10-01T02:28:51.281Z,0
2022-10-01T02:30:08.385Z,0
2022-10-01T02:31:24.505Z,0
2022-10-01T02:32:41.609Z,0
2022-10-01T02:33:58.714Z,0
2022-10-01T02:35:15.818Z,0
2022-10-01T02:36:32.922Z,0
2022-10-01T02:37:50.027Z,0
2022-10-01T02:39:07.131Z,0
2022-10-01T02:40:24.235Z,0
2022-10-01T02:41:41.340Z,0
2022-10-01T02:42:58.444Z,0
2022-10-01T02:44:15.548Z,0
2022-10-01T02:45:32.652Z,0
2022-10-01T02:46:49.757Z,0
2022-10-01T02:48:05.877Z,0
2022-10-01T02:49:22.982Z,0
2022-10-01T02:50:40.086Z,0
2022-10-01T02:51:57.190Z,0
2022-10-01T02:53:14.294Z,0
2022-10-01T02:54:30.415Z,0
2022-10-01T02:55:47.519Z,0
2022-10-01T02:57:04.623Z,0
2022-10-01T02:58:21.728Z,0
2022-10-01T02:59:38.832Z,0
2022-10-01T03:00:55.936Z,0
2022-10-01T03:02:13.041Z,0
2022-10-01T03:03:30.145Z,0
2022-10-01T03:04:47.249Z,0
2022-10-01T03:06:04.353Z,0
2022-10-01T03:07:21.458Z,0
2022-10-01T03:08:38.562Z,0
2022-10-01T03:09:55.667Z,0
2022-10-01T03:11:11.787Z,0
2022-10-01T03:12:28.891Z,0
2022-10-01T03:13:45.996Z,0
2022-10-01T03:15:03.100Z,0
2022-10-01T03:16:20.205Z,0
2022-10-01T03:17:37.310Z,0
2022-10-01T03:18:54.414Z,0
2022-10-01T03:20:11.518Z,0
2022-10-01T03:21:28.623Z,0
2022-10-01T03:22:45.727Z,0
2022-10-01T03:24:02.832Z,0
2022-10-01T03:25:19.936Z,0
2022-10-01T03:26:37.041Z,0
2022-10-01T03:27:53.162Z,0
2022-10-01T03:29:10.266Z,0
2022-10-01T03:30:27.371Z,0
2022-10-01T03:31:44.475Z,0
2022-10-01T03:33:01.580Z,0
2022-10-01T03:34:18.684Z,0
2022-10-01T03:35:35.788Z,0
2022-10-01T03:36:52.893Z,0
2022-10-01T03:38:09.997Z,0
2022-10-01T03:39:27.101Z,0
2022-10-01T03:40:44.206Z,0
2022-10-01T03:42:01.310Z,0
2022-10-01T03:43:18.415Z,0
2022-10-01T03:44:34.535Z,0
2022-10-01T03:45:51.639Z,0
2022-10-01T03:47:08.744Z,0
2022-10-01T03:48:25.848Z,0
2022-10-01T03:49:42.952Z,0
2022-10-01T03:51:00.057Z,0
2022-10-01T03:52:17.161Z,0
2022-10-01T03:53:34.265Z,0
2022-10-01T03:54:51.370Z,0
2022-10-01T03:56:08.474Z,0
2022-10-01T03:57:25.578Z,0
2022-10-01T03:58:42.683Z,0
2022-10-01T03:59:59.787Z,0
2022-10-01T04:01:15.908Z,0
2022-10-01T04:02:33.012Z,0
2022-10-01T04:03:50.116Z,0
2022-10-01T04:05:07.220Z,0
2022-10-01T04:06:24.325Z,0
2022-10-01T04:07:41.429Z,0
2022-10-01T04:08:58.534Z,0
2022-10-01T04:10:15.638Z,0
2022-10-01T04:11:32.742Z,0
2022-10-01T04:12:49.847Z,0
2022-10-01T04:14:06.951Z,0
2022-10-01T04:15:24.055Z,0
2022-10-01T04:16:41.161Z,0
2022-10-01T04:17:57.279Z,0
2022-10-01T04:19:14.384Z,0
2022-10-01T04:20:31.488Z,0
2022-10-01T04:21:48.592Z,0
2022-10-01T04:23:05.697Z,0
2022-10-01T04:24:22.801Z,0
2022-10-01T04:25:39.905Z,0
2022-10-01T04:26:57.009Z,0
2022-10-01T04:28:14.114Z,0
2022-10-01T04:29:31.218Z,0
2022-10-01T04:30:48.323Z,0
2022-10-01T04:32:05.427Z,0
2022-10-01T04:33:22.531Z,0
2022-10-01T04:34:38.652Z,0
2022-10-01T04:35:55.756Z,0
2022-10-01T04:37:12.861Z,0
2022-10-01T04:38:29.965Z,0
2022-10-01T04:39:47.070Z,0
2022-10-01T04:41:04.174Z,0
2022-10-01T04:42:21.279Z,0
2022-10-01T04:43:38.383Z,0
2022-10-01T04:44:55.487Z,0
2022-10-01T04:46:12.592Z,0
2022-10-01T04:47:29.696Z,0
2022-10-01T04:48:46.800Z,0
2022-10-01T04:50:03.905Z,0
2022-10-01T04:51:20.025Z,0
2022-10-01T04:52:37.130Z,0
2022-10-01T04:53:54.234Z,0
2022-10-01T04:55:11.338Z,0
2022-10-01T04:56:28.443Z,0
2022-10-01T04:57:45.548Z,0
2022-10-01T04:59:02.652Z,0
2022-10-01T05:00:19.757Z,0
2022-10-01T05:01:36.861Z,0
2022-10-01T05:02:53.966Z,0
2022-10-01T05:04:11.070Z,0
2022-10-01T05:05:28.174Z,0
2022-10-01T05:06:45.278Z,0
2022-10-01T05:08:01.399Z,0
2022-10-01T05:09:18.503Z,0
2022-10-01T05:10:35.607Z,4
2022-10-01T05:11:52.712Z,4
2022-10-01T05:13:09.816Z,4
2022-10-01T05:14:26.921Z,4
2022-10-01T05:15:44.025Z,4
2022-10-01T05:17:01.129Z,4
2022-10-01T05:18:18.233Z,8
2022-10-01T05:19:35.338Z,8
2022-10-01T05:20:52.442Z,12
2022-10-01T05:22:09.546Z,12
2022-10-01T05:23:26.651Z,12
2022-10-01T05:24:42.771Z,16
2022-10-01T05:25:59.876Z,20
2022-10-01T05:27:16.980Z,28
2022-10-01T05:28:34.084Z,28
2022-10-01T05:29:51.189Z,40
2022-10-01T05:31:08.293Z,32
2022-10-01T05:32:25.397Z,36
2022-10-01T05:33:42.502Z,36
2022-10-01T05:34:59.606Z,36
2022-10-01T05:36:16.710Z,48
2022-10-01T05:37:33.815Z,40
2022-10-01T05:38:50.919Z,48
2022-10-01T05:40:08.023Z,76
2022-10-01T05:41:24.144Z,56
2022-10-01T05:42:41.248Z,36
2022-10-01T05:43:58.352Z,68
2022-10-01T05:45:15.457Z,76
2022-10-01T05:46:32.561Z,56
2022-10-01T05:47:49.666Z,68
2022-10-01T05:49:06.770Z,132
2022-10-01T05:50:23.874Z,160
2022-10-01T05:51:40.978Z,144
2022-10-01T05:52:58.083Z,140
2022-10-01T05:54:15.187Z,156
2022-10-01T05:55:32.291Z,220
2022-10-01T05:56:49.396Z,284
2022-10-01T05:58:05.516Z,280
2022-10-01T05:59:22.621Z,292
2022-10-01T06:00:39.725Z,340
2022-10-01T06:01:56.829Z,364
2022-10-01T06:03:13.933Z,348
2022-10-01T06:04:31.038Z,396
2022-10-01T06:05:48.142Z,444
2022-10-01T06:07:05.246Z,428
2022-10-01T06:08:22.351Z,304
2022-10-01T06:09:39.455Z,264
2022-10-01T06:10:56.560Z,216
2022-10-01T06:12:13.664Z,160
2022-10-01T06:13:30.769Z,144
2022-10-01T06:14:46.889Z,168
2022-10-01T06:16:03.994Z,188
2022-10-01T06:17:21.098Z,220
2022-10-01T06:18:38.202Z,200
2022-10-01T06:19:55.307Z,220
2022-10-01T06:21:12.411Z,288
2022-10-01T06:22:29.515Z,344
2022-10-01T06:23:46.620Z,352
2022-10-01T06:25:03.724Z,384
2022-10-01T06:26:20.829Z,376
2022-10-01T06:27:37.933Z,464
2022-10-01T06:28:55.037Z,464
2022-10-01T06:30:12.142Z,488
2022-10-01T06:31:28.263Z,480
2022-10-01T06:32:45.367Z,524
2022-10-01T06:34:02.471Z,548
2022-10-01T06:35:19.575Z,720
2022-10-01T06:36:36.680Z,684
2022-10-01T06:37:53.784Z,744
2022-10-01T06:39:10.889Z,560
2022-10-01T06:40:27.993Z,512
2022-10-01T06:41:45.098Z,832
2022-10-01T06:43:02.202Z,900
2022-10-01T06:44:19.307Z,880
2022-10-01T06:45:36.411Z,828
2022-10-01T06:46:53.515Z,772
2022-10-01T06:48:09.636Z,852
2022-10-01T06:49:26.740Z,828
2022-10-01T06:50:43.844Z,716
2022-10-01T06:52:00.949Z,712
2022-10-01T06:53:18.053Z,572
2022-10-01T06:54:35.158Z,608
2022-10-01T06:55:52.262Z,612
2022-10-01T06:57:09.367Z,644
2022-10-01T06:58:26.471Z,476
2022-10-01T06:59:43.575Z,524
2022-10-01T07:01:00.680Z,568
2022-10-01T07:02:17.784Z,588
2022-10-01T07:03:34.889Z,560
2022-10-01T07:04:51.009Z,512
2022-10-01T07:06:08.114Z,488
2022-10-01T07:07:25.218Z,560
2022-10-01T07:08:42.322Z,428
2022-10-01T07:09:59.427Z,496
2022-10-01T07:11:16.531Z,484
2022-10-01T07:12:32.652Z,500
2022-10-01T07:13:49.756Z,460
2022-10-01T07:15:06.860Z,452
2022-10-01T07:16:23.965Z,488
2022-10-01T07:17:41.070Z,592
2022-10-01T07:18:58.174Z,780
2022-10-01T07:20:15.278Z,956
2022-10-01T07:21:32.383Z,932
2022-10-01T07:22:49.487Z,984
2022-10-01T07:24:06.592Z,1076
2022-10-01T07:25:23.696Z,964
2022-10-01T07:26:40.801Z,1044
2022-10-01T07:27:57.905Z,1040
2022-10-01T07:29:14.026Z,1040
2022-10-01T07:30:31.130Z,1300
2022-10-01T07:31:48.234Z,1428
2022-10-01T07:33:05.339Z,1256
2022-10-01T07:34:22.443Z,1176
2022-10-01T07:35:39.548Z,1112
2022-10-01T07:36:56.652Z,1252
2022-10-01T07:38:13.757Z,1108
2022-10-01T07:39:30.861Z,1208
2022-10-01T07:40:47.965Z,1272
2022-10-01T07:42:05.070Z,1396
2022-10-01T07:43:22.174Z,1172
2022-10-01T07:44:39.279Z,1312
2022-10-01T07:45:55.399Z,1564
2022-10-01T07:47:12.503Z,1520
2022-10-01T07:48:29.608Z,1592
2022-10-01T07:49:46.712Z,1752
2022-10-01T07:51:03.817Z,1968
2022-10-01T07:52:20.921Z,1892
2022-10-01T07:53:38.026Z,1860
2022-10-01T07:54:55.130Z,2072
2022-10-01T07:56:12.234Z,2236
2022-10-01T07:57:29.339Z,2180
2022-10-01T07:58:46.443Z,2520
2022-10-01T08:00:03.548Z,2244
2022-10-01T08:01:20.652Z,2152
2022-10-01T08:02:36.773Z,2396
2022-10-01T08:03:53.878Z,1808
2022-10-01T08:05:10.983Z,1648
2022-10-01T08:06:28.087Z,1544
2022-10-01T08:07:45.192Z,1364
2022-10-01T08:09:02.296Z,1112
2022-10-01T08:10:19.401Z,1264
2022-10-01T08:11:36.505Z,1404
2022-10-01T08:12:53.610Z,1124
2022-10-01T08:14:10.714Z,676
2022-10-01T08:15:27.819Z,688
2022-10-01T08:16:44.923Z,720
2022-10-01T08:18:02.027Z,644
2022-10-01T08:19:18.148Z,628
2022-10-01T08:20:35.252Z,588
2022-10-01T08:21:52.357Z,616
2022-10-01T08:23:09.461Z,916
2022-10-01T08:24:26.566Z,1216
2022-10-01T08:25:43.670Z,1816
2022-10-01T08:27:00.775Z,1744
2022-10-01T08:28:17.879Z,1624
2022-10-01T08:29:34.983Z,1692
2022-10-01T08:30:52.088Z,1568
2022-10-01T08:32:09.192Z,1600
2022-10-01T08:33:26.297Z,2124
2022-10-01T08:34:43.401Z,2868
2022-10-01T08:35:59.522Z,3232
2022-10-01T08:37:16.626Z,3216
2022-10-01T08:38:33.730Z,3892
2022-10-01T08:39:50.835Z,5068
2022-10-01T08:41:07.939Z,5040
2022-10-01T08:42:25.043Z,4388
2022-10-01T08:43:42.149Z,3168
2022-10-01T08:44:59.253Z,1920
2022-10-01T08:46:16.357Z,2128
2022-10-01T08:47:33.462Z,2524
2022-10-01T08:48:50.566Z,3368
2022-10-01T08:50:07.670Z,3160
2022-10-01T08:51:24.774Z,3092
2022-10-01T08:52:40.894Z,3656
2022-10-01T08:53:57.999Z,3884
2022-10-01T08:55:15.103Z,3848
2022-10-01T08:56:32.207Z,4304
2022-10-01T08:57:49.311Z,4636
2022-10-01T08:59:06.416Z,3972
2022-10-01T09:00:23.520Z,3092
2022-10-01T09:01:40.624Z,3208
2022-10-01T09:02:57.728Z,4244
2022-10-01T09:04:14.832Z,4616
2022-10-01T09:05:31.936Z,3972
2022-10-01T09:06:49.041Z,3312
2022-10-01T09:08:06.145Z,3452
2022-10-01T09:09:22.265Z,3984
2022-10-01T09:10:39.369Z,3652
2022-10-01T09:11:56.473Z,2852
2022-10-01T09:13:13.577Z,2968
2022-10-01T09:14:30.681Z,2372
2022-10-01T09:15:47.786Z,2212
2022-10-01T09:17:04.890Z,2572
2022-10-01T09:18:21.994Z,3452
2022-10-01T09:19:39.098Z,3296
2022-10-01T09:20:56.202Z,3228
2022-10-01T09:22:13.306Z,4124
2022-10-01T09:23:30.410Z,4788
2022-10-01T09:24:47.515Z,4328
2022-10-01T09:26:03.635Z,4456
2022-10-01T09:27:20.739Z,3108
2022-10-01T09:28:37.843Z,4232
2022-10-01T09:29:54.947Z,4388
2022-10-01T09:31:12.052Z,4148
2022-10-01T09:32:29.156Z,3748
2022-10-01T09:33:46.260Z,3616
2022-10-01T09:35:03.364Z,4512
2022-10-01T09:36:20.468Z,3836
2022-10-01T09:37:37.572Z,3340
2022-10-01T09:38:54.676Z,2596
2022-10-01T09:40:11.780Z,2628
2022-10-01T09:41:28.885Z,3248
2022-10-01T09:42:45.005Z,3140
2022-10-01T09:44:02.109Z,2284
2022-10-01T09:45:19.213Z,3196
2022-10-01T09:46:36.317Z,3164
2022-10-01T09:47:53.421Z,2844
2022-10-01T09:49:10.525Z,2744
2022-10-01T09:50:27.630Z,2428
2022-10-01T09:51:44.734Z,2136
2022-10-01T09:53:01.838Z,1988
2022-10-01T09:54:18.942Z,2176
2022-10-01T09:55:36.046Z,2696
2022-10-01T09:56:53.150Z,2808
2022-10-01T09:58:10.254Z,3284
2022-10-01T09:59:26.375Z,4484
2022-10-01T10:00:43.479Z,3912
2022-10-01T10:02:00.583Z,3316
2022-10-01T10:03:17.687Z,3224
2022-10-01T10:04:34.791Z,3104
2022-10-01T10:05:51.895Z,2824
2022-10-01T10:07:09.000Z,1852
2022-10-01T10:08:26.104Z,1520
2022-10-01T10:09:43.208Z,2380
2022-10-01T10:11:00.312Z,2508
2022-10-01T10:12:17.416Z,2116
2022-10-01T10:13:34.520Z,2404
2022-10-01T10:14:51.624Z,3460
2022-10-01T10:16:07.745Z,3820
2022-10-01T10:17:24.849Z,4132
2022-10-01T10:18:41.954Z,4664
2022-10-01T10:19:59.058Z,4500
2022-10-01T10:21:16.162Z,4208
2022-10-01T10:22:33.266Z,3936
2022-10-01T10:23:50.371Z,3344
2022-10-01T10:25:07.476Z,4680
2022-10-01T10:26:24.580Z,4100
2022-10-01T10:27:41.684Z,3312
2022-10-01T10:28:58.788Z,3700
2022-10-01T10:30:15.893Z,2440
2022-10-01T10:31:32.997Z,1756
2022-10-01T10:32:49.118Z,1072
2022-10-01T10:34:06.222Z,984
2022-10-01T10:35:23.326Z,976
2022-10-01T10:36:40.430Z,1496
2022-10-01T10:37:57.534Z,2620
2022-10-01T10:39:14.639Z,3228
2022-10-01T10:40:31.743Z,4204
2022-10-01T10:41:48.847Z,4776
2022-10-01T10:43:05.951Z,5248
2022-10-01T10:44:23.055Z,5300
2022-10-01T10:45:40.159Z,5996
2022-10-01T10:46:57.264Z,5472
2022-10-01T10:48:14.368Z,4616
2022-10-01T10:49:30.488Z,5716
2022-10-01T10:50:47.592Z,5132
2022-10-01T10:52:04.696Z,6820
2022-10-01T10:53:21.800Z,6760
2022-10-01T10:54:38.904Z,5980
2022-10-01T10:55:56.009Z,6908
2022-10-01T10:57:13.113Z,8080
2022-10-01T10:58:30.218Z,9188
2022-10-01T10:59:47.322Z,11436
2022-10-01T11:01:04.426Z,14596
2022-10-01T11:02:21.530Z,14800
2022-10-01T11:03:38.634Z,11436
2022-10-01T11:04:55.739Z,11244
2022-10-01T11:06:11.859Z,12244
2022-10-01T11:07:28.963Z,15348
2022-10-01T11:08:46.068Z,16320
2022-10-01T11:10:03.172Z,12832
2022-10-01T11:11:20.276Z,9264
2022-10-01T11:12:37.380Z,9268
2022-10-01T11:13:54.484Z,12380
2022-10-01T11:15:11.587Z,13304
2022-10-01T11:16:28.691Z,13100
2022-10-01T11:17:45.795Z,11644
2022-10-01T11:19:02.899Z,8328
2022-10-01T11:20:20.004Z,7460
2022-10-01T11:21:37.108Z,10384
2022-10-01T11:22:53.228Z,11140
2022-10-01T11:24:10.332Z,9428
2022-10-01T11:25:27.436Z,7532
2022-10-01T11:26:44.540Z,6936
2022-10-01T11:28:01.644Z,5488
2022-10-01T11:29:18.748Z,6228
2022-10-01T11:30:34.869Z,7024
2022-10-01T11:31:51.973Z,9228
2022-10-01T11:33:09.077Z,9432
2022-10-01T11:34:26.181Z,9452
2022-10-01T11:35:43.285Z,9556
2022-10-01T11:37:00.390Z,10204
2022-10-01T11:38:17.494Z,10016
2022-10-01T11:39:34.598Z,9668
2022-10-01T11:40:51.703Z,9748
2022-10-01T11:42:08.807Z,8880
2022-10-01T11:43:25.912Z,8172
2022-10-01T11:44:43.016Z,8364
2022-10-01T11:46:00.120Z,8012
2022-10-01T11:47:16.240Z,9008
2022-10-01T11:48:33.344Z,9384
2022-10-01T11:49:50.449Z,9640
2022-10-01T11:51:07.553Z,8456
2022-10-01T11:52:24.657Z,9940
2022-10-01T11:53:41.761Z,9476
2022-10-01T11:54:58.865Z,9384
2022-10-01T11:56:15.969Z,10192
2022-10-01T11:57:33.073Z,9672
2022-10-01T11:58:50.178Z,9712
2022-10-01T12:00:07.282Z,10120
2022-10-01T12:01:24.386Z,8800
2022-10-01T12:02:41.490Z,9548
2022-10-01T12:03:57.610Z,7528
2022-10-01T12:05:14.714Z,8328
2022-10-01T12:06:31.819Z,7536
2022-10-01T12:07:48.923Z,9332
2022-10-01T12:09:06.027Z,8872
2022-10-01T12:10:23.131Z,10376
2022-10-01T12:11:40.236Z,9684
2022-10-01T12:12:57.340Z,11368
2022-10-01T12:14:14.444Z,12944
2022-10-01T12:15:31.548Z,12008
2022-10-01T12:16:48.653Z,10284
2022-10-01T12:18:05.756Z,7504
2022-10-01T12:19:22.860Z,8500
2022-10-01T12:20:38.981Z,7696
2022-10-01T12:21:56.085Z,8508
2022-10-01T12:23:13.189Z,8036
2022-10-01T12:24:30.293Z,7076
2022-10-01T12:25:47.397Z,7724
2022-10-01T12:27:04.501Z,7440
2022-10-01T12:28:21.606Z,7308
2022-10-01T12:29:38.710Z,7316
2022-10-01T12:30:55.814Z,7088
2022-10-01T12:32:12.918Z,6692
2022-10-01T12:33:30.022Z,6488
2022-10-01T12:34:47.126Z,6528
2022-10-01T12:36:04.230Z,6744
2022-10-01T12:37:20.350Z,6800
2022-10-01T12:38:37.454Z,6356
2022-10-01T12:39:54.558Z,5936
2022-10-01T12:41:11.662Z,5160
2022-10-01T12:42:28.766Z,4776
2022-10-01T12:43:45.870Z,5048
2022-10-01T12:45:02.974Z,6536
2022-10-01T12:46:20.078Z,6656
2022-10-01T12:47:37.182Z,6224
2022-10-01T12:48:54.286Z,7012
2022-10-01T12:50:11.391Z,9604
2022-10-01T12:51:28.495Z,9552
2022-10-01T12:52:45.599Z,6684
2022-10-01T12:54:01.719Z,5996
2022-10-01T12:55:18.823Z,6428
2022-10-01T12:56:35.927Z,6668
2022-10-01T12:57:53.031Z,6344
2022-10-01T12:59:10.135Z,5180
2022-10-01T13:00:27.239Z,3788
2022-10-01T13:01:44.344Z,3136
2022-10-01T13:03:01.448Z,3920
2022-10-01T13:04:18.552Z,4452
2022-10-01T13:05:35.656Z,11176
2022-10-01T13:06:52.760Z,11652
2022-10-01T13:08:09.864Z,9604
2022-10-01T13:09:26.969Z,9200
2022-10-01T13:10:43.089Z,8408
2022-10-01T13:12:00.194Z,8140
2022-10-01T13:13:17.298Z,7420
2022-10-01T13:14:34.402Z,8232
2022-10-01T13:15:51.507Z,7856
2022-10-01T13:17:08.611Z,7896
2022-10-01T13:18:25.715Z,7688
2022-10-01T13:19:42.819Z,7428
2022-10-01T13:20:59.923Z,7992
2022-10-01T13:22:17.027Z,7640
2022-10-01T13:23:34.132Z,8064
2022-10-01T13:24:51.236Z,8324
2022-10-01T13:26:08.340Z,8208
2022-10-01T13:27:24.460Z,8308
2022-10-01T13:28:41.565Z,8372
2022-10-01T13:29:58.669Z,8480
2022-10-01T13:31:15.773Z,8188
2022-10-01T13:32:32.877Z,7908
2022-10-01T13:33:49.981Z,7920
2022-10-01T13:35:07.086Z,8896
2022-10-01T13:36:24.190Z,9844
2022-10-01T13:37:41.294Z,9400
2022-10-01T13:38:58.398Z,9744
2022-10-01T13:40:15.503Z,9792
2022-10-01T13:41:32.607Z,9072
2022-10-01T13:42:49.711Z,9680
2022-10-01T13:44:05.831Z,10748
2022-10-01T13:45:22.935Z,10944
2022-10-01T13:46:40.040Z,10828
2022-10-01T13:47:57.144Z,10328
2022-10-01T13:49:14.248Z,9596
2022-10-01T13:50:31.353Z,9664
2022-10-01T13:51:48.457Z,10144
2022-10-01T13:53:05.561Z,9928
2022-10-01T13:54:22.666Z,10036
2022-10-01T13:55:39.771Z,10812
2022-10-01T13:56:56.875Z,11288
2022-10-01T13:58:13.979Z,11996
2022-10-01T13:59:31.083Z,12068
2022-10-01T14:00:47.203Z,11388
2022-10-01T14:02:04.307Z,10296
2022-10-01T14:03:21.411Z,9816
2022-10-01T14:04:38.515Z,8988
2022-10-01T14:05:55.619Z,8532
2022-10-01T14:07:12.723Z,8496
2022-10-01T14:08:29.828Z,8000
2022-10-01T14:09:46.932Z,8768
2022-10-01T14:11:04.036Z,8724
2022-10-01T14:12:21.140Z,8988
2022-10-01T14:13:38.244Z,9568
2022-10-01T14:14:55.348Z,9732
2022-10-01T14:16:12.452Z,9408
2022-10-01T14:17:28.572Z,9100
2022-10-01T14:18:45.676Z,8640
2022-10-01T14:20:02.780Z,8796
2022-10-01T14:21:19.884Z,9004
2022-10-01T14:22:36.988Z,9964
2022-10-01T14:23:54.092Z,9452
2022-10-01T14:25:11.194Z,9064
2022-10-01T14:26:28.298Z,8276
2022-10-01T14:27:45.402Z,6884
2022-10-01T14:29:02.506Z,7496
2022-10-01T14:30:19.610Z,7164
2022-10-01T14:31:36.714Z,6664
2022-10-01T14:32:53.818Z,6760
2022-10-01T14:34:09.938Z,6140
2022-10-01T14:35:27.042Z,5760
2022-10-01T14:36:44.146Z,6856
2022-10-01T14:38:01.250Z,9060
2022-10-01T14:39:18.354Z,13732
2022-10-01T14:40:35.458Z,13292
2022-10-01T14:41:52.562Z,12248
2022-10-01T14:43:09.666Z,10056
2022-10-01T14:44:26.770Z,9296
2022-10-01T14:45:43.874Z,8988
2022-10-01T14:47:00.978Z,7436
2022-10-01T14:48:18.082Z,7300
2022-10-01T14:49:35.186Z,8016
2022-10-01T14:50:51.306Z,8984
2022-10-01T14:52:08.410Z,9152
2022-10-01T14:53:25.514Z,9788
2022-10-01T14:54:42.618Z,8920
2022-10-01T14:55:59.722Z,6552
2022-10-01T14:57:16.825Z,6556
2022-10-01T14:58:33.929Z,6916
2022-10-01T14:59:51.033Z,4824
2022-10-01T15:01:08.137Z,3936
2022-10-01T15:02:25.241Z,2380
2022-10-01T15:03:42.345Z,1328
2022-10-01T15:04:59.449Z,784
2022-10-01T15:06:16.553Z,656
2022-10-01T15:07:32.673Z,800
2022-10-01T15:08:49.777Z,1024
2022-10-01T15:10:06.881Z,1224
2022-10-01T15:11:23.986Z,1196
2022-10-01T15:12:41.090Z,1228
2022-10-01T15:13:58.194Z,1512
2022-10-01T15:15:15.298Z,1992
2022-10-01T15:16:32.402Z,2208
2022-10-01T15:17:49.506Z,1920
2022-10-01T15:19:06.610Z,1580
2022-10-01T15:20:23.714Z,1508
2022-10-01T15:21:40.818Z,1544
2022-10-01T15:22:57.922Z,1432
2022-10-01T15:24:14.043Z,1356
2022-10-01T15:25:31.147Z,1544
2022-10-01T15:26:48.252Z,1312
2022-10-01T15:28:05.356Z,1428
2022-10-01T15:29:22.460Z,1640
2022-10-01T15:30:39.564Z,1712
2022-10-01T15:31:56.668Z,2224
2022-10-01T15:33:13.772Z,2804
2022-10-01T15:34:30.877Z,3476
2022-10-01T15:35:47.981Z,3012
2022-10-01T15:37:05.085Z,3392
2022-10-01T15:38:22.189Z,3240
2022-10-01T15:39:39.294Z,4164
2022-10-01T15:40:55.414Z,4716
2022-10-01T15:42:12.518Z,4136
2022-10-01T15:43:29.622Z,3624
2022-10-01T15:44:46.726Z,3412
2022-10-01T15:46:03.831Z,3244
2022-10-01T15:47:20.935Z,3184
2022-10-01T15:48:37.055Z,3068
2022-10-01T15:49:54.160Z,2944
2022-10-01T15:51:11.264Z,2416
2022-10-01T15:52:28.368Z,2088
2022-10-01T15:53:45.472Z,1952
2022-10-01T15:55:02.576Z,1872
2022-10-01T15:56:19.678Z,1804
2022-10-01T15:57:36.783Z,1788
2022-10-01T15:58:53.887Z,1820
2022-10-01T16:00:10.991Z,1824
2022-10-01T16:01:28.095Z,1796
2022-10-01T16:02:45.199Z,1748
2022-10-01T16:04:02.303Z,1672
2022-10-01T16:05:18.424Z,1668
2022-10-01T16:06:35.528Z,1704
2022-10-01T16:07:52.632Z,1752
2022-10-01T16:09:09.736Z,1796
2022-10-01T16:10:26.840Z,1856
2022-10-01T16:11:43.945Z,1932
2022-10-01T16:13:01.049Z,1980
2022-10-01T16:14:18.153Z,2028
2022-10-01T16:15:35.257Z,2276
2022-10-01T16:16:52.361Z,2576
2022-10-01T16:18:09.465Z,2644
2022-10-01T16:19:26.569Z,2520
2022-10-01T16:20:43.673Z,2472
2022-10-01T16:21:59.794Z,2508
2022-10-01T16:23:16.898Z,2476
2022-10-01T16:24:34.002Z,2372
2022-10-01T16:25:51.106Z,2208
2022-10-01T16:27:08.210Z,2024
2022-10-01T16:28:25.314Z,1860
2022-10-01T16:29:42.418Z,1752
2022-10-01T16:30:59.523Z,1696
2022-10-01T16:32:16.627Z,1652
2022-10-01T16:33:33.731Z,1616
2022-10-01T16:34:50.835Z,1568
2022-10-01T16:36:07.939Z,1508
2022-10-01T16:37:25.044Z,1500
2022-10-01T16:38:41.164Z,1404
2022-10-01T16:39:58.268Z,1332
2022-10-01T16:41:15.372Z,1296
2022-10-01T16:42:32.476Z,1276
2022-10-01T16:43:49.580Z,1244
2022-10-01T16:45:06.685Z,1208
2022-10-01T16:46:23.789Z,1164
2022-10-01T16:47:40.893Z,1112
2022-10-01T16:48:57.997Z,1048
2022-10-01T16:50:15.101Z,976
2022-10-01T16:51:32.205Z,908
2022-10-01T16:52:49.309Z,840
2022-10-01T16:54:06.413Z,776
2022-10-01T16:55:22.533Z,716
2022-10-01T16:56:39.639Z,656
2022-10-01T16:57:56.743Z,604
2022-10-01T16:59:13.847Z,548
2022-10-01T17:00:30.951Z,496
2022-10-01T17:01:48.055Z,440
2022-10-01T17:03:05.160Z,400
2022-10-01T17:04:22.265Z,352
2022-10-01T17:05:39.369Z,312
2022-10-01T17:06:56.473Z,272
2022-10-01T17:08:13.578Z,236
2022-10-01T17:09:30.682Z,200
2022-10-01T17:10:47.786Z,168
2022-10-01T17:12:03.906Z,144
2022-10-01T17:13:21.011Z,120
2022-10-01T17:14:38.115Z,96
2022-10-01T17:15:55.219Z,80
2022-10-01T17:17:12.324Z,68
2022-10-01T17:18:29.428Z,52
2022-10-01T17:19:46.533Z,44
2022-10-01T17:21:03.637Z,36
2022-10-01T17:22:20.741Z,28
2022-10-01T17:23:37.846Z,24
2022-10-01T17:24:54.950Z,16
2022-10-01T17:26:12.055Z,16
2022-10-01T17:27:29.159Z,12
2022-10-01T17:28:45.280Z,8
2022-10-01T17:30:02.384Z,4
2022-10-01T17:31:19.489Z,4
2022-10-01T17:32:36.593Z,4
2022-10-01T17:33:53.698Z,4
2022-10-01T17:35:10.802Z,4
2022-10-01T17:36:27.906Z,4
2022-10-01T17:37:45.011Z,0
2022-10-01T17:39:02.115Z,0
2022-10-01T17:40:19.220Z,0
2022-10-01T17:41:36.324Z,0
2022-10-01T17:42:53.429Z,0
2022-10-01T17:44:10.533Z,0
2022-10-01T17:45:26.654Z,0